createdAt,value
2019-05-02T00:03:16.816Z," 9.80"
2019-05-02T00:08:12.560Z," 9.82"
2019-05-02T00:13:08.383Z," 9.56"
2019-05-02T00:18:04.219Z," 9.59"
2019-05-02T00:22:59.630Z," 9.59"
2019-05-02T00:27:55.428Z," 9.54"
2019-05-02T00:32:53.161Z," 9.31"
2019-05-02T00:37:50.319Z," 9.36"
2019-05-02T00:42:45.753Z," 9.36"
2019-05-02T00:47:42.150Z," 9.22"
2019-05-02T00:52:40.876Z," 9.19"
2019-05-02T00:57:38.110Z," 9.29"
2019-05-02T01:02:35.825Z," 9.37"
2019-05-02T01:07:33.101Z," 9.31"
2019-05-02T01:12:28.752Z," 9.46"
2019-05-02T01:17:30.524Z," 9.36"
2019-05-02T01:22:24.830Z," 9.00"
2019-05-02T01:27:21.546Z," 8.92"
2019-05-02T01:32:16.817Z," 9.02"
2019-05-02T01:37:20.625Z," 9.10"
2019-05-02T01:42:13.735Z," 8.94"
2019-05-02T01:47:09.368Z," 8.92"
2019-05-02T01:52:05.028Z," 9.00"
2019-05-02T01:57:03.882Z," 9.02"
2019-05-02T02:02:00.105Z," 8.99"
2019-05-02T02:06:57.487Z," 8.91"
2019-05-02T02:11:52.666Z," 9.03"
2019-05-02T02:16:48.559Z," 9.10"
2019-05-02T02:21:45.041Z," 9.06"
2019-05-02T02:26:43.604Z," 9.10"
2019-05-02T02:31:46.846Z," 9.14"
2019-05-02T02:36:40.255Z," 9.10"
2019-05-02T02:41:37.113Z," 9.14"
2019-05-02T02:46:37.929Z," 9.16"
2019-05-02T02:51:31.767Z," 9.21"
2019-05-02T02:56:27.641Z," 9.16"
2019-05-02T03:01:29.090Z," 9.25"
2019-05-02T03:06:23.624Z," 9.34"
2019-05-02T03:11:23.361Z," 9.32"
2019-05-02T03:16:19.925Z," 9.32"
2019-05-02T03:21:20.309Z," 9.47"
2019-05-02T03:26:17.083Z," 9.32"
2019-05-02T03:31:23.897Z," 9.39"
2019-05-02T03:36:25.720Z," 9.22"
2019-05-02T03:41:13.578Z," 9.48"
2019-05-02T03:46:13.480Z," 9.43"
2019-05-02T03:51:19.193Z," 9.39"
2019-05-02T03:56:11.649Z," 9.46"
2019-05-02T04:01:09.309Z," 9.50"
2019-05-02T04:06:04.693Z," 9.56"
2019-05-02T04:11:01.814Z," 9.56"
2019-05-02T04:15:57.590Z," 9.59"
2019-05-02T04:20:54.345Z," 9.73"
2019-05-02T04:25:51.185Z," 9.55"
2019-05-02T04:30:51.321Z," 9.56"
2019-05-02T04:35:45.849Z," 9.61"
2019-05-02T04:40:46.423Z," 9.58"
2019-05-02T04:45:55.355Z," 9.44"
2019-05-02T04:50:40.582Z," 9.51"
2019-05-02T04:55:38.081Z," 9.50"
2019-05-02T05:00:33.993Z," 9.50"
2019-05-02T05:05:31.291Z," 9.44"
2019-05-02T05:10:27.718Z," 9.54"
2019-05-02T05:15:37.074Z," 9.48"
2019-05-02T05:20:23.128Z," 9.58"
2019-05-02T05:25:21.295Z," 9.68"
2019-05-02T05:30:18.671Z," 9.69"
2019-05-02T05:35:13.957Z," 9.58"
2019-05-02T05:40:09.706Z," 9.58"
2019-05-02T05:45:09.753Z," 9.46"
2019-05-02T05:50:05.729Z," 9.58"
2019-05-02T05:55:04.653Z," 9.58"
2019-05-02T06:00:03.689Z," 9.54"
2019-05-02T06:05:03.434Z," 9.62"
2019-05-02T06:10:02.404Z," 9.72"
2019-05-02T06:15:01.651Z," 9.76"
2019-05-02T06:19:57.910Z," 9.80"
2019-05-02T06:24:53.196Z," 9.84"
2019-05-02T06:29:51.130Z," 9.94"
2019-05-02T06:34:50.228Z," 9.89"
2019-05-02T06:39:45.794Z," 9.98"
2019-05-02T06:44:41.908Z," 9.89"
2019-05-02T06:49:37.724Z,10.09
2019-05-02T06:54:33.516Z,10.09
2019-05-02T06:59:29.461Z,10.16
2019-05-02T07:04:26.550Z,10.25
2019-05-02T07:09:23.003Z,10.22
2019-05-02T07:14:23.753Z,10.35
2019-05-02T07:19:21.902Z,10.33
2019-05-02T07:24:19.257Z,10.48
2019-05-02T07:29:17.099Z,10.57
2019-05-02T07:34:14.352Z,10.76
2019-05-02T07:39:10.605Z,11.02
2019-05-02T07:44:06.722Z,11.32
2019-05-02T07:49:03.246Z,11.59
2019-05-02T07:54:01.456Z,12.32
2019-05-02T07:58:56.745Z,11.91
2019-05-02T08:03:52.058Z,11.59
2019-05-02T08:08:48.549Z,11.73
2019-05-02T08:13:44.090Z,11.87
2019-05-02T08:18:40.357Z,12.54
2019-05-02T08:23:36.335Z,12.79
2019-05-02T08:28:32.186Z,12.79
2019-05-02T08:33:34.801Z,13.15
2019-05-02T08:38:30.507Z,13.19
2019-05-02T08:43:26.744Z,13.37
2019-05-02T08:48:23.033Z,13.30
2019-05-02T08:53:20.344Z,13.23
2019-05-02T08:58:17.638Z,13.22
2019-05-02T09:03:13.504Z,13.18
2019-05-02T09:08:14.162Z,13.33
2019-05-02T09:13:09.792Z,13.42
2019-05-02T09:18:06.665Z,13.62
2019-05-02T09:23:03.297Z,13.74
2019-05-02T09:27:59.418Z,14.26
2019-05-02T09:32:57.138Z,14.77
2019-05-02T09:37:56.450Z,14.92
2019-05-02T09:42:58.464Z,14.85
2019-05-02T09:48:03.852Z,15.14
2019-05-02T09:52:53.006Z,14.84
2019-05-02T09:57:48.791Z,15.10
2019-05-02T10:02:46.195Z,15.55
2019-05-02T10:07:42.459Z,15.91
2019-05-02T10:12:39.442Z,15.94
2019-05-02T10:17:37.445Z,15.97
2019-05-02T10:22:39.352Z,16.51
2019-05-02T10:27:38.469Z,16.74
2019-05-02T10:32:34.661Z,16.86
2019-05-02T10:37:38.093Z,16.72
2019-05-02T10:42:32.436Z,16.53
2019-05-02T10:47:27.863Z,16.71
2019-05-02T10:52:29.642Z,17.19
2019-05-02T10:57:23.315Z,16.76
2019-05-02T11:02:19.377Z,17.01
2019-05-02T11:07:17.208Z,17.16
2019-05-02T11:12:16.386Z,17.83
2019-05-02T11:17:18.027Z,18.16
2019-05-02T11:22:13.103Z,18.03
2019-05-02T11:27:12.671Z,18.33
2019-05-02T11:32:08.977Z,18.63
2019-05-02T11:37:04.838Z,18.50
2019-05-02T11:41:58.300Z,18.03
2019-05-02T11:46:54.581Z,18.25
2019-05-02T11:51:55.770Z,18.11
2019-05-02T11:56:53.347Z,17.86
2019-05-02T12:01:59.086Z,17.49
2019-05-02T12:06:50.047Z,17.57
2019-05-02T12:11:55.030Z,17.71
2019-05-02T12:16:49.816Z,18.16
2019-05-02T12:21:45.432Z,18.35
2019-05-02T12:26:41.920Z,17.90
2019-05-02T12:31:38.484Z,18.05
2019-05-02T12:36:33.627Z,17.87
2019-05-02T12:41:29.479Z,17.76
2019-05-02T12:46:25.122Z,17.63
2019-05-02T12:51:23.080Z,17.76
2019-05-02T12:56:18.707Z,18.01
2019-05-02T13:01:14.976Z,18.13
2019-05-02T13:06:12.171Z,17.71
2019-05-02T13:11:11.807Z,17.46
2019-05-02T13:16:07.619Z,17.02
2019-05-02T13:21:08.207Z,17.06
2019-05-02T13:26:10.112Z,16.96
2019-05-02T13:31:02.537Z,16.87
2019-05-02T13:35:57.891Z,16.61
2019-05-02T13:40:53.321Z,16.68
2019-05-02T13:45:49.033Z,16.51
2019-05-02T13:50:44.813Z,16.38
2019-05-02T13:55:42.594Z,15.76
2019-05-02T14:00:37.507Z,15.00
2019-05-02T14:05:33.037Z,14.72
2019-05-02T14:10:33.740Z,14.58
2019-05-02T14:15:28.352Z,14.47
2019-05-02T14:20:23.888Z,14.25
2019-05-02T14:25:19.704Z,14.04
2019-05-02T14:30:15.462Z,14.00
2019-05-02T14:35:11.805Z,13.93
2019-05-02T14:40:07.515Z,13.85
2019-05-02T14:45:11.982Z,13.95
2019-05-02T14:50:05.138Z,13.86
2019-05-02T14:55:00.379Z,13.81
2019-05-02T15:00:00.605Z,13.79
2019-05-02T15:04:57.283Z,13.81
2019-05-02T15:09:57.219Z,13.74
2019-05-02T15:14:57.501Z,13.71
2019-05-02T15:19:54.782Z,13.70
2019-05-02T15:24:50.310Z,13.71
2019-05-02T15:29:45.742Z,13.86
2019-05-02T15:34:46.641Z,13.75
2019-05-02T15:44:42.591Z,13.50
2019-05-02T15:49:41.792Z,13.42
2019-05-02T15:54:37.960Z,13.22
2019-05-02T15:59:37.567Z,13.38
2019-05-02T16:04:32.796Z,13.35
2019-05-02T16:09:28.551Z,13.33
2019-05-02T16:14:27.240Z,13.18
2019-05-02T16:19:29.287Z,13.22
2019-05-02T16:24:24.840Z,13.15
2019-05-02T16:29:26.757Z,13.22
2019-05-02T16:34:19.458Z,13.27
2019-05-02T16:39:16.150Z,13.03
2019-05-02T16:44:12.685Z,13.03
2019-05-02T16:49:08.806Z,12.86
2019-05-02T16:54:08.857Z,12.90
2019-05-02T16:59:04.468Z,13.00
2019-05-02T17:04:03.190Z,12.91
2019-05-02T17:09:02.217Z,13.13
2019-05-02T17:13:57.714Z,13.23
2019-05-02T17:18:56.641Z,13.20
2019-05-02T17:23:52.598Z,13.00
2019-05-02T17:28:49.135Z,12.98
2019-05-02T17:33:46.211Z,13.00
2019-05-02T17:38:43.474Z,13.03
2019-05-02T17:43:42.162Z,12.85
2019-05-02T17:48:39.260Z,12.78
2019-05-02T17:53:41.098Z,12.78
2019-05-02T17:58:33.961Z,12.82
2019-05-02T18:03:31.203Z,12.86
2019-05-02T18:08:29.166Z,12.90
2019-05-02T18:13:29.219Z,12.79
2019-05-02T18:18:24.153Z,12.85
2019-05-02T18:23:25.903Z,12.70
2019-05-02T18:28:24.630Z,12.75
2019-05-02T18:33:19.610Z,12.53
2019-05-02T18:38:15.841Z,12.58
2019-05-02T18:43:14.217Z,12.49
2019-05-02T18:48:10.060Z,12.40
2019-05-02T18:53:05.780Z,12.46
2019-05-02T18:58:05.124Z,12.49
2019-05-02T19:03:02.607Z,12.43
2019-05-02T19:07:57.770Z,12.42
2019-05-02T19:12:56.065Z,12.45
2019-05-02T19:17:53.444Z,12.55
2019-05-02T19:22:54.776Z,12.45
2019-05-02T19:27:48.737Z,12.37
2019-05-02T19:32:44.343Z,12.36
2019-05-02T19:37:44.568Z,12.25
2019-05-02T19:42:42.443Z,12.20
2019-05-02T19:47:42.026Z,12.15
2019-05-02T19:52:40.534Z,11.94
2019-05-02T19:57:37.482Z,11.90
2019-05-02T20:02:37.436Z,11.86
2019-05-02T20:07:32.645Z,11.83
2019-05-02T20:12:28.320Z,11.80
2019-05-02T20:17:25.196Z,11.62
2019-05-02T20:22:22.360Z,11.59
2019-05-02T20:27:17.626Z,11.51
2019-05-02T20:32:13.297Z,11.47
2019-05-02T20:37:09.786Z,11.35
2019-05-02T20:42:05.256Z,11.32
2019-05-02T20:47:02.583Z,11.30
2019-05-02T20:51:58.127Z,11.17
2019-05-02T20:56:54.018Z,11.02
2019-05-02T21:01:52.282Z,11.08
2019-05-02T21:06:47.856Z,10.94
2019-05-02T21:11:43.370Z,10.87
2019-05-02T21:16:39.593Z,10.93
2019-05-02T21:21:35.348Z,10.99
2019-05-02T21:26:32.794Z,11.02
2019-05-02T21:31:29.325Z,11.05
2019-05-02T21:36:24.376Z,11.05
2019-05-02T21:41:21.772Z,10.93
2019-05-02T21:46:17.510Z,10.92
2019-05-02T21:51:13.414Z,10.92
2019-05-02T21:56:09.339Z,10.79
2019-05-02T22:01:06.998Z,10.78
2019-05-02T22:06:02.552Z,10.60
2019-05-02T22:10:59.394Z,10.51
2019-05-02T22:15:54.979Z,10.46
2019-05-02T22:20:52.328Z,10.44
2019-05-02T22:25:47.561Z,10.46
2019-05-02T22:30:44.385Z,10.63
2019-05-02T22:35:43.203Z,10.46
2019-05-02T22:40:39.098Z,10.40
2019-05-02T22:45:35.834Z,10.41
2019-05-02T22:50:32.520Z,10.38
2019-05-02T22:55:27.629Z,10.20
2019-05-02T23:00:24.255Z,10.23
2019-05-02T23:05:19.939Z,10.30
2019-05-02T23:10:15.710Z,10.35
2019-05-02T23:15:12.597Z,10.16
2019-05-02T23:20:08.091Z,10.31
2019-05-02T23:25:03.808Z,10.20
2019-05-02T23:29:59.447Z,10.16
2019-05-02T23:34:55.312Z,10.07
2019-05-02T23:39:52.307Z,10.09
2019-05-02T23:44:47.669Z,10.10
2019-05-02T23:49:43.169Z,10.07
2019-05-02T23:54:49.303Z," 9.94"
2019-05-02T23:59:39.091Z," 9.94"
